Mapes, North Dakota
Current Conditions -  °F | °C
As of 11:55 PM on Tuesday 21 Oct 2014 (Local Time) from KDVL Reporting Station
Clear Clear  
Wind Chill: 59°   Ceiling: Unl
Heat Index: 59°   Visibility: 10mi
Dew Point: 43°   Wind: 23mph
Humidity: 55%   Direction: 160°SSE
Pressure: 29.72"   Gusts: 30mph
Location:  48.021°N, 98.3447°W
Report Text: KDVL 220455Z AUTO 16020G26KT 10SM CLR 15/06 A2972 RMK AO1
Loading
Personal Weather Stations






























Interactive Weather Map
Tropical Storm Tracking
New forecast layout! Learn more

10-Day Weather Forecast

Advertisements
Track Severe Weather on mobile